sensor_id;sensor_type;location;lat;lon;timestamp;P1;durP1;ratioP1;P2;durP2;ratioP2
39140;SDS011;24875;48.436;10.298;2023-08-06T00:00:26;2.58;;;1.55;;
39140;SDS011;24875;48.436;10.298;2023-08-06T00:02:53;5.60;;;2.13;;
39140;SDS011;24875;48.436;10.298;2023-08-06T00:05:20;5.22;;;1.63;;
39140;SDS011;24875;48.436;10.298;2023-08-06T00:07:48;4.35;;;1.75;;
39140;SDS011;24875;48.436;10.298;2023-08-06T00:10:15;3.20;;;1.95;;
39140;SDS011;24875;48.436;10.298;2023-08-06T00:12:41;3.03;;;1.52;;
39140;SDS011;24875;48.436;10.298;2023-08-06T00:15:08;3.78;;;1.50;;
39140;SDS011;24875;48.436;10.298;2023-08-06T00:17:36;3.90;;;1.58;;
39140;SDS011;24875;48.436;10.298;2023-08-06T00:20:02;2.65;;;1.75;;
39140;SDS011;24875;48.436;10.298;2023-08-06T00:22:31;3.10;;;1.85;;
39140;SDS011;24875;48.436;10.298;2023-08-06T00:24:59;3.60;;;2.47;;
39140;SDS011;24875;48.436;10.298;2023-08-06T00:27:25;6.15;;;2.42;;
39140;SDS011;24875;48.436;10.298;2023-08-06T00:29:52;2.28;;;1.48;;
39140;SDS011;24875;48.436;10.298;2023-08-06T00:32:18;2.92;;;1.38;;
39140;SDS011;24875;48.436;10.298;2023-08-06T00:34:45;3.55;;;1.73;;
39140;SDS011;24875;48.436;10.298;2023-08-06T00:37:12;2.08;;;1.17;;
39140;SDS011;24875;48.436;10.298;2023-08-06T00:39:38;3.03;;;1.75;;
39140;SDS011;24875;48.436;10.298;2023-08-06T00:42:06;4.97;;;2.15;;
39140;SDS011;24875;48.436;10.298;2023-08-06T00:44:33;5.03;;;2.10;;
39140;SDS011;24875;48.436;10.298;2023-08-06T00:46:59;2.75;;;1.70;;
39140;SDS011;24875;48.436;10.298;2023-08-06T00:49:26;3.65;;;1.52;;
39140;SDS011;24875;48.436;10.298;2023-08-06T00:51:53;3.90;;;1.48;;
39140;SDS011;24875;48.436;10.298;2023-08-06T00:54:19;2.97;;;1.83;;
39140;SDS011;24875;48.436;10.298;2023-08-06T00:56:46;3.28;;;1.58;;
39140;SDS011;24875;48.436;10.298;2023-08-06T00:59:14;3.85;;;1.75;;
39140;SDS011;24875;48.436;10.298;2023-08-06T01:01:41;2.95;;;1.55;;
39140;SDS011;24875;48.436;10.298;2023-08-06T01:04:07;2.67;;;1.67;;
39140;SDS011;24875;48.436;10.298;2023-08-06T01:06:35;3.33;;;2.22;;
39140;SDS011;24875;48.436;10.298;2023-08-06T01:09:12;5.05;;;1.52;;
39140;SDS011;24875;48.436;10.298;2023-08-06T01:11:51;2.40;;;1.88;;
39140;SDS011;24875;48.436;10.298;2023-08-06T01:14:26;2.83;;;1.45;;
39140;SDS011;24875;48.436;10.298;2023-08-06T01:16:56;2.67;;;1.45;;
39140;SDS011;24875;48.436;10.298;2023-08-06T01:19:24;1.50;;;1.20;;
39140;SDS011;24875;48.436;10.298;2023-08-06T01:21:52;2.17;;;1.42;;
39140;SDS011;24875;48.436;10.298;2023-08-06T01:24:19;2.67;;;1.40;;
39140;SDS011;24875;48.436;10.298;2023-08-06T01:26:51;2.20;;;1.48;;
39140;SDS011;24875;48.436;10.298;2023-08-06T01:29:28;2.85;;;1.40;;
39140;SDS011;24875;48.436;10.298;2023-08-06T01:31:58;2.83;;;1.77;;
39140;SDS011;24875;48.436;10.298;2023-08-06T01:34:25;1.90;;;1.30;;
39140;SDS011;24875;48.436;10.298;2023-08-06T01:36:57;1.45;;;1.30;;
39140;SDS011;24875;48.436;10.298;2023-08-06T01:39:26;2.88;;;1.38;;
39140;SDS011;24875;48.436;10.298;2023-08-06T01:41:53;2.15;;;1.30;;
39140;SDS011;24875;48.436;10.298;2023-08-06T01:44:19;3.22;;;1.55;;
39140;SDS011;24875;48.436;10.298;2023-08-06T01:46:46;2.25;;;1.25;;
39140;SDS011;24875;48.436;10.298;2023-08-06T01:49:12;2.13;;;1.20;;
39140;SDS011;24875;48.436;10.298;2023-08-06T01:51:39;1.83;;;1.30;;
39140;SDS011;24875;48.436;10.298;2023-08-06T01:54:07;3.50;;;1.67;;
39140;SDS011;24875;48.436;10.298;2023-08-06T01:56:33;1.90;;;1.25;;
39140;SDS011;24875;48.436;10.298;2023-08-06T01:59:00;2.00;;;1.20;;
39140;SDS011;24875;48.436;10.298;2023-08-06T02:01:26;2.47;;;1.40;;
39140;SDS011;24875;48.436;10.298;2023-08-06T02:03:53;1.90;;;1.15;;
39140;SDS011;24875;48.436;10.298;2023-08-06T02:06:19;1.58;;;1.23;;
39140;SDS011;24875;48.436;10.298;2023-08-06T02:08:46;2.10;;;0.93;;
39140;SDS011;24875;48.436;10.298;2023-08-06T02:11:13;3.22;;;0.93;;
39140;SDS011;24875;48.436;10.298;2023-08-06T02:13:40;1.88;;;1.20;;
39140;SDS011;24875;48.436;10.298;2023-08-06T02:16:07;1.85;;;1.08;;
39140;SDS011;24875;48.436;10.298;2023-08-06T02:18:34;2.30;;;1.38;;
39140;SDS011;24875;48.436;10.298;2023-08-06T02:21:00;0.95;;;0.75;;
39140;SDS011;24875;48.436;10.298;2023-08-06T02:23:27;4.60;;;1.50;;
39140;SDS011;24875;48.436;10.298;2023-08-06T02:25:57;1.15;;;1.02;;
39140;SDS011;24875;48.436;10.298;2023-08-06T02:28:26;3.03;;;1.10;;
39140;SDS011;24875;48.436;10.298;2023-08-06T02:30:53;1.10;;;0.90;;
39140;SDS011;24875;48.436;10.298;2023-08-06T02:33:19;0.88;;;0.70;;
39140;SDS011;24875;48.436;10.298;2023-08-06T02:35:46;1.52;;;0.82;;
39140;SDS011;24875;48.436;10.298;2023-08-06T02:38:12;2.90;;;1.25;;
39140;SDS011;24875;48.436;10.298;2023-08-06T02:40:42;1.30;;;1.00;;
39140;SDS011;24875;48.436;10.298;2023-08-06T02:43:09;1.58;;;0.93;;
39140;SDS011;24875;48.436;10.298;2023-08-06T02:45:37;1.67;;;1.13;;
39140;SDS011;24875;48.436;10.298;2023-08-06T02:48:04;2.55;;;1.27;;
39140;SDS011;24875;48.436;10.298;2023-08-06T02:50:31;2.72;;;1.08;;
39140;SDS011;24875;48.436;10.298;2023-08-06T02:53:03;1.95;;;1.33;;
39140;SDS011;24875;48.436;10.298;2023-08-06T02:55:29;4.07;;;1.00;;
39140;SDS011;24875;48.436;10.298;2023-08-06T02:57:56;2.42;;;1.38;;
39140;SDS011;24875;48.436;10.298;2023-08-06T03:00:23;2.00;;;1.23;;
39140;SDS011;24875;48.436;10.298;2023-08-06T03:02:50;3.10;;;1.10;;
39140;SDS011;24875;48.436;10.298;2023-08-06T03:05:17;3.05;;;1.10;;
39140;SDS011;24875;48.436;10.298;2023-08-06T03:07:43;2.45;;;1.00;;
39140;SDS011;24875;48.436;10.298;2023-08-06T03:10:10;2.70;;;1.20;;
39140;SDS011;24875;48.436;10.298;2023-08-06T03:12:37;1.88;;;0.90;;
39140;SDS011;24875;48.436;10.298;2023-08-06T03:15:04;2.08;;;1.05;;
39140;SDS011;24875;48.436;10.298;2023-08-06T03:17:31;3.40;;;1.13;;
39140;SDS011;24875;48.436;10.298;2023-08-06T03:19:59;1.80;;;0.93;;
39140;SDS011;24875;48.436;10.298;2023-08-06T03:22:25;1.55;;;0.90;;
39140;SDS011;24875;48.436;10.298;2023-08-06T03:24:52;1.73;;;1.00;;
39140;SDS011;24875;48.436;10.298;2023-08-06T03:27:18;1.35;;;1.00;;
39140;SDS011;24875;48.436;10.298;2023-08-06T03:29:45;4.07;;;1.50;;
39140;SDS011;24875;48.436;10.298;2023-08-06T03:32:14;3.58;;;1.67;;
39140;SDS011;24875;48.436;10.298;2023-08-06T03:34:41;1.45;;;0.90;;
39140;SDS011;24875;48.436;10.298;2023-08-06T03:37:09;1.65;;;1.05;;
39140;SDS011;24875;48.436;10.298;2023-08-06T03:39:35;2.10;;;1.20;;
39140;SDS011;24875;48.436;10.298;2023-08-06T03:42:02;2.20;;;1.15;;
39140;SDS011;24875;48.436;10.298;2023-08-06T03:44:28;1.85;;;1.05;;
39140;SDS011;24875;48.436;10.298;2023-08-06T03:46:55;2.70;;;1.10;;
39140;SDS011;24875;48.436;10.298;2023-08-06T03:49:22;2.08;;;1.45;;
39140;SDS011;24875;48.436;10.298;2023-08-06T03:51:49;1.38;;;1.00;;
39140;SDS011;24875;48.436;10.298;2023-08-06T03:54:16;6.53;;;1.77;;
39140;SDS011;24875;48.436;10.298;2023-08-06T03:56:43;5.72;;;1.02;;
39140;SDS011;24875;48.436;10.298;2023-08-06T03:59:09;1.80;;;1.00;;
39140;SDS011;24875;48.436;10.298;2023-08-06T04:01:36;1.70;;;0.90;;
39140;SDS011;24875;48.436;10.298;2023-08-06T04:04:03;4.15;;;0.93;;
39140;SDS011;24875;48.436;10.298;2023-08-06T04:06:29;1.42;;;1.05;;
39140;SDS011;24875;48.436;10.298;2023-08-06T04:08:56;1.42;;;1.00;;
39140;SDS011;24875;48.436;10.298;2023-08-06T04:11:24;1.17;;;0.88;;
39140;SDS011;24875;48.436;10.298;2023-08-06T04:13:50;1.13;;;0.80;;
39140;SDS011;24875;48.436;10.298;2023-08-06T04:16:16;1.25;;;0.85;;
39140;SDS011;24875;48.436;10.298;2023-08-06T04:18:43;1.85;;;1.20;;
39140;SDS011;24875;48.436;10.298;2023-08-06T04:21:10;1.73;;;1.15;;
39140;SDS011;24875;48.436;10.298;2023-08-06T04:23:37;1.80;;;1.05;;
39140;SDS011;24875;48.436;10.298;2023-08-06T04:26:04;4.95;;;1.40;;
39140;SDS011;24875;48.436;10.298;2023-08-06T04:28:31;1.30;;;0.98;;
39140;SDS011;24875;48.436;10.298;2023-08-06T04:30:58;2.08;;;1.10;;
39140;SDS011;24875;48.436;10.298;2023-08-06T04:33:25;1.52;;;0.90;;
39140;SDS011;24875;48.436;10.298;2023-08-06T04:35:54;1.10;;;0.90;;
39140;SDS011;24875;48.436;10.298;2023-08-06T04:38:22;1.88;;;0.95;;
39140;SDS011;24875;48.436;10.298;2023-08-06T04:40:50;1.55;;;1.10;;
39140;SDS011;24875;48.436;10.298;2023-08-06T04:43:16;1.15;;;0.90;;
39140;SDS011;24875;48.436;10.298;2023-08-06T04:45:46;1.70;;;1.08;;
39140;SDS011;24875;48.436;10.298;2023-08-06T04:48:13;0.88;;;0.60;;
39140;SDS011;24875;48.436;10.298;2023-08-06T04:50:42;1.42;;;0.93;;
39140;SDS011;24875;48.436;10.298;2023-08-06T04:53:09;2.67;;;1.27;;
39140;SDS011;24875;48.436;10.298;2023-08-06T04:55:36;2.10;;;1.30;;
39140;SDS011;24875;48.436;10.298;2023-08-06T04:58:03;1.00;;;0.80;;
39140;SDS011;24875;48.436;10.298;2023-08-06T05:00:29;1.38;;;0.93;;
39140;SDS011;24875;48.436;10.298;2023-08-06T05:02:59;0.60;;;0.60;;
39140;SDS011;24875;48.436;10.298;2023-08-06T05:05:26;0.95;;;0.80;;
39140;SDS011;24875;48.436;10.298;2023-08-06T05:07:53;6.47;;;0.88;;
39140;SDS011;24875;48.436;10.298;2023-08-06T05:10:21;1.38;;;1.10;;
39140;SDS011;24875;48.436;10.298;2023-08-06T05:12:47;2.00;;;0.98;;
39140;SDS011;24875;48.436;10.298;2023-08-06T05:15:14;1.55;;;0.95;;
39140;SDS011;24875;48.436;10.298;2023-08-06T05:17:41;2.08;;;1.20;;
39140;SDS011;24875;48.436;10.298;2023-08-06T05:20:09;2.65;;;0.80;;
39140;SDS011;24875;48.436;10.298;2023-08-06T05:22:37;4.20;;;0.98;;
39140;SDS011;24875;48.436;10.298;2023-08-06T05:25:04;1.75;;;1.00;;
39140;SDS011;24875;48.436;10.298;2023-08-06T05:27:31;3.95;;;1.52;;
39140;SDS011;24875;48.436;10.298;2023-08-06T05:29:58;2.13;;;1.13;;
39140;SDS011;24875;48.436;10.298;2023-08-06T05:32:24;5.20;;;0.90;;
39140;SDS011;24875;48.436;10.298;2023-08-06T05:34:51;1.00;;;0.80;;
39140;SDS011;24875;48.436;10.298;2023-08-06T05:37:19;2.63;;;1.50;;
39140;SDS011;24875;48.436;10.298;2023-08-06T05:39:45;1.95;;;1.10;;
39140;SDS011;24875;48.436;10.298;2023-08-06T05:42:12;1.85;;;0.98;;
39140;SDS011;24875;48.436;10.298;2023-08-06T05:44:38;2.40;;;0.98;;
39140;SDS011;24875;48.436;10.298;2023-08-06T05:47:05;1.42;;;0.85;;
39140;SDS011;24875;48.436;10.298;2023-08-06T05:49:31;2.28;;;1.08;;
39140;SDS011;24875;48.436;10.298;2023-08-06T05:51:58;1.90;;;0.95;;
39140;SDS011;24875;48.436;10.298;2023-08-06T05:54:26;3.75;;;1.45;;
39140;SDS011;24875;48.436;10.298;2023-08-06T05:56:52;1.55;;;0.85;;
39140;SDS011;24875;48.436;10.298;2023-08-06T05:59:19;2.70;;;1.08;;
39140;SDS011;24875;48.436;10.298;2023-08-06T06:01:45;1.40;;;1.08;;
39140;SDS011;24875;48.436;10.298;2023-08-06T06:04:11;2.45;;;1.30;;
39140;SDS011;24875;48.436;10.298;2023-08-06T06:06:38;1.77;;;1.02;;
39140;SDS011;24875;48.436;10.298;2023-08-06T06:09:06;0.90;;;0.80;;
39140;SDS011;24875;48.436;10.298;2023-08-06T06:11:34;1.05;;;0.95;;
39140;SDS011;24875;48.436;10.298;2023-08-06T06:14:01;1.63;;;0.90;;
39140;SDS011;24875;48.436;10.298;2023-08-06T06:16:27;1.05;;;0.70;;
39140;SDS011;24875;48.436;10.298;2023-08-06T06:18:54;1.52;;;0.70;;
39140;SDS011;24875;48.436;10.298;2023-08-06T06:21:22;1.10;;;0.85;;
39140;SDS011;24875;48.436;10.298;2023-08-06T06:23:50;0.80;;;0.80;;
39140;SDS011;24875;48.436;10.298;2023-08-06T06:26:17;3.05;;;0.77;;
39140;SDS011;24875;48.436;10.298;2023-08-06T06:28:45;0.80;;;0.77;;
39140;SDS011;24875;48.436;10.298;2023-08-06T06:31:11;1.35;;;0.60;;
39140;SDS011;24875;48.436;10.298;2023-08-06T06:33:38;1.70;;;1.05;;
39140;SDS011;24875;48.436;10.298;2023-08-06T06:36:04;1.05;;;0.80;;
39140;SDS011;24875;48.436;10.298;2023-08-06T06:38:32;0.60;;;0.50;;
39140;SDS011;24875;48.436;10.298;2023-08-06T06:40:59;7.97;;;1.23;;
39140;SDS011;24875;48.436;10.298;2023-08-06T06:43:25;1.63;;;0.75;;
39140;SDS011;24875;48.436;10.298;2023-08-06T06:45:53;1.10;;;0.50;;
39140;SDS011;24875;48.436;10.298;2023-08-06T06:48:22;0.77;;;0.68;;
39140;SDS011;24875;48.436;10.298;2023-08-06T06:50:49;3.58;;;0.80;;
39140;SDS011;24875;48.436;10.298;2023-08-06T06:53:15;1.17;;;0.80;;
39140;SDS011;24875;48.436;10.298;2023-08-06T06:55:42;4.00;;;0.30;;
39140;SDS011;24875;48.436;10.298;2023-08-06T06:58:08;1.25;;;1.02;;
39140;SDS011;24875;48.436;10.298;2023-08-06T07:00:35;0.80;;;0.57;;
39140;SDS011;24875;48.436;10.298;2023-08-06T07:03:03;1.25;;;0.40;;
39140;SDS011;24875;48.436;10.298;2023-08-06T07:05:30;0.50;;;0.40;;
39140;SDS011;24875;48.436;10.298;2023-08-06T07:07:56;0.30;;;0.22;;
39140;SDS011;24875;48.436;10.298;2023-08-06T07:10:23;1.10;;;0.52;;
39140;SDS011;24875;48.436;10.298;2023-08-06T07:12:49;0.30;;;0.30;;
39140;SDS011;24875;48.436;10.298;2023-08-06T07:15:16;4.03;;;0.77;;
39140;SDS011;24875;48.436;10.298;2023-08-06T07:17:43;0.65;;;0.55;;
39140;SDS011;24875;48.436;10.298;2023-08-06T07:20:11;1.65;;;0.50;;
39140;SDS011;24875;48.436;10.298;2023-08-06T07:22:38;0.50;;;0.50;;
39140;SDS011;24875;48.436;10.298;2023-08-06T07:25:04;2.90;;;0.50;;
39140;SDS011;24875;48.436;10.298;2023-08-06T07:27:31;0.45;;;0.40;;
39140;SDS011;24875;48.436;10.298;2023-08-06T07:29:58;1.33;;;0.70;;
39140;SDS011;24875;48.436;10.298;2023-08-06T07:32:24;0.40;;;0.40;;
39140;SDS011;24875;48.436;10.298;2023-08-06T07:34:51;0.40;;;0.40;;
39140;SDS011;24875;48.436;10.298;2023-08-06T07:37:23;0.93;;;0.40;;
39140;SDS011;24875;48.436;10.298;2023-08-06T07:39:49;0.32;;;0.30;;
39140;SDS011;24875;48.436;10.298;2023-08-06T07:42:16;0.50;;;0.50;;
39140;SDS011;24875;48.436;10.298;2023-08-06T07:44:49;0.32;;;0.30;;
39140;SDS011;24875;48.436;10.298;2023-08-06T07:47:17;1.17;;;0.50;;
39140;SDS011;24875;48.436;10.298;2023-08-06T07:49:44;0.30;;;0.30;;
39140;SDS011;24875;48.436;10.298;2023-08-06T07:52:10;0.50;;;0.40;;
39140;SDS011;24875;48.436;10.298;2023-08-06T07:54:38;1.33;;;0.57;;
39140;SDS011;24875;48.436;10.298;2023-08-06T07:57:05;0.38;;;0.38;;
39140;SDS011;24875;48.436;10.298;2023-08-06T07:59:32;0.30;;;0.30;;
39140;SDS011;24875;48.436;10.298;2023-08-06T08:01:58;0.85;;;0.50;;
39140;SDS011;24875;48.436;10.298;2023-08-06T08:04:25;0.30;;;0.30;;
39140;SDS011;24875;48.436;10.298;2023-08-06T08:06:51;0.47;;;0.47;;
39140;SDS011;24875;48.436;10.298;2023-08-06T08:09:18;0.52;;;0.43;;
39140;SDS011;24875;48.436;10.298;2023-08-06T08:11:46;0.30;;;0.30;;
39140;SDS011;24875;48.436;10.298;2023-08-06T08:14:13;0.10;;;0.10;;
39140;SDS011;24875;48.436;10.298;2023-08-06T08:16:39;0.45;;;0.32;;
39140;SDS011;24875;48.436;10.298;2023-08-06T08:19:06;0.50;;;0.50;;
39140;SDS011;24875;48.436;10.298;2023-08-06T08:21:33;0.20;;;0.20;;
39140;SDS011;24875;48.436;10.298;2023-08-06T08:23:59;0.57;;;0.30;;
39140;SDS011;24875;48.436;10.298;2023-08-06T08:26:26;0.20;;;0.20;;
39140;SDS011;24875;48.436;10.298;2023-08-06T08:28:55;0.20;;;0.20;;
39140;SDS011;24875;48.436;10.298;2023-08-06T08:31:22;0.20;;;0.20;;
39140;SDS011;24875;48.436;10.298;2023-08-06T08:33:48;0.20;;;0.20;;
39140;SDS011;24875;48.436;10.298;2023-08-06T08:36:15;0.32;;;0.32;;
39140;SDS011;24875;48.436;10.298;2023-08-06T08:38:41;0.20;;;0.20;;
39140;SDS011;24875;48.436;10.298;2023-08-06T08:41:09;0.38;;;0.30;;
39140;SDS011;24875;48.436;10.298;2023-08-06T08:43:36;0.20;;;0.20;;
39140;SDS011;24875;48.436;10.298;2023-08-06T08:46:04;0.20;;;0.20;;
39140;SDS011;24875;48.436;10.298;2023-08-06T08:48:33;0.65;;;0.47;;
39140;SDS011;24875;48.436;10.298;2023-08-06T08:51:00;0.47;;;0.30;;
39140;SDS011;24875;48.436;10.298;2023-08-06T08:53:28;0.20;;;0.20;;
39140;SDS011;24875;48.436;10.298;2023-08-06T08:55:54;0.88;;;0.20;;
39140;SDS011;24875;48.436;10.298;2023-08-06T08:58:21;0.30;;;0.30;;
39140;SDS011;24875;48.436;10.298;2023-08-06T09:00:48;0.20;;;0.20;;
39140;SDS011;24875;48.436;10.298;2023-08-06T09:03:17;0.20;;;0.20;;
39140;SDS011;24875;48.436;10.298;2023-08-06T09:05:44;0.30;;;0.30;;
39140;SDS011;24875;48.436;10.298;2023-08-06T09:08:11;0.20;;;0.20;;
39140;SDS011;24875;48.436;10.298;2023-08-06T09:10:43;0.38;;;0.30;;
39140;SDS011;24875;48.436;10.298;2023-08-06T09:13:10;0.20;;;0.20;;
39140;SDS011;24875;48.436;10.298;2023-08-06T09:15:37;0.20;;;0.20;;
39140;SDS011;24875;48.436;10.298;2023-08-06T09:18:08;0.30;;;0.30;;
39140;SDS011;24875;48.436;10.298;2023-08-06T09:20:38;0.20;;;0.20;;
39140;SDS011;24875;48.436;10.298;2023-08-06T09:23:08;0.30;;;0.30;;
39140;SDS011;24875;48.436;10.298;2023-08-06T09:25:36;0.30;;;0.30;;
39140;SDS011;24875;48.436;10.298;2023-08-06T09:28:04;0.20;;;0.20;;
39140;SDS011;24875;48.436;10.298;2023-08-06T09:30:32;0.20;;;0.20;;
39140;SDS011;24875;48.436;10.298;2023-08-06T09:33:00;0.28;;;0.20;;
39140;SDS011;24875;48.436;10.298;2023-08-06T09:35:28;0.38;;;0.38;;
39140;SDS011;24875;48.436;10.298;2023-08-06T09:37:56;0.20;;;0.20;;
39140;SDS011;24875;48.436;10.298;2023-08-06T09:40:32;0.55;;;0.30;;
39140;SDS011;24875;48.436;10.298;2023-08-06T09:42:58;0.20;;;0.20;;
39140;SDS011;24875;48.436;10.298;2023-08-06T09:45:30;1.65;;;0.30;;
39140;SDS011;24875;48.436;10.298;2023-08-06T09:47:58;0.20;;;0.20;;
39140;SDS011;24875;48.436;10.298;2023-08-06T09:50:27;0.20;;;0.20;;
39140;SDS011;24875;48.436;10.298;2023-08-06T09:52:58;0.20;;;0.20;;
39140;SDS011;24875;48.436;10.298;2023-08-06T09:55:25;0.13;;;0.13;;
39140;SDS011;24875;48.436;10.298;2023-08-06T09:57:53;0.10;;;0.10;;
39140;SDS011;24875;48.436;10.298;2023-08-06T10:00:20;0.25;;;0.25;;
39140;SDS011;24875;48.436;10.298;2023-08-06T10:02:47;0.20;;;0.20;;
39140;SDS011;24875;48.436;10.298;2023-08-06T10:05:15;0.28;;;0.22;;
39140;SDS011;24875;48.436;10.298;2023-08-06T10:07:42;0.30;;;0.30;;
39140;SDS011;24875;48.436;10.298;2023-08-06T10:10:11;0.28;;;0.28;;
39140;SDS011;24875;48.436;10.298;2023-08-06T10:12:39;0.65;;;0.47;;
39140;SDS011;24875;48.436;10.298;2023-08-06T10:15:11;0.30;;;0.30;;
39140;SDS011;24875;48.436;10.298;2023-08-06T10:17:41;0.43;;;0.30;;
39140;SDS011;24875;48.436;10.298;2023-08-06T10:20:10;0.20;;;0.20;;
39140;SDS011;24875;48.436;10.298;2023-08-06T10:22:37;0.20;;;0.20;;
39140;SDS011;24875;48.436;10.298;2023-08-06T10:25:09;0.45;;;0.30;;
39140;SDS011;24875;48.436;10.298;2023-08-06T10:27:39;0.20;;;0.20;;
39140;SDS011;24875;48.436;10.298;2023-08-06T10:30:26;0.30;;;0.30;;
39140;SDS011;24875;48.436;10.298;2023-08-06T10:32:54;5.18;;;0.50;;
39140;SDS011;24875;48.436;10.298;2023-08-06T10:35:35;0.20;;;0.20;;
39140;SDS011;24875;48.436;10.298;2023-08-06T10:38:05;0.20;;;0.20;;
39140;SDS011;24875;48.436;10.298;2023-08-06T10:40:36;0.20;;;0.20;;
39140;SDS011;24875;48.436;10.298;2023-08-06T10:43:03;0.10;;;0.10;;
39140;SDS011;24875;48.436;10.298;2023-08-06T10:45:33;0.22;;;0.22;;
39140;SDS011;24875;48.436;10.298;2023-08-06T10:48:01;0.20;;;0.20;;
39140;SDS011;24875;48.436;10.298;2023-08-06T10:50:28;0.30;;;0.30;;
39140;SDS011;24875;48.436;10.298;2023-08-06T10:52:56;0.20;;;0.20;;
39140;SDS011;24875;48.436;10.298;2023-08-06T10:55:24;0.22;;;0.22;;
39140;SDS011;24875;48.436;10.298;2023-08-06T10:57:52;0.20;;;0.20;;
39140;SDS011;24875;48.436;10.298;2023-08-06T11:00:20;0.20;;;0.20;;
39140;SDS011;24875;48.436;10.298;2023-08-06T11:02:47;0.20;;;0.20;;
39140;SDS011;24875;48.436;10.298;2023-08-06T11:05:14;0.22;;;0.22;;
39140;SDS011;24875;48.436;10.298;2023-08-06T11:07:41;0.20;;;0.20;;
39140;SDS011;24875;48.436;10.298;2023-08-06T11:10:08;0.20;;;0.20;;
39140;SDS011;24875;48.436;10.298;2023-08-06T11:12:36;0.17;;;0.17;;
39140;SDS011;24875;48.436;10.298;2023-08-06T11:15:05;0.20;;;0.20;;
39140;SDS011;24875;48.436;10.298;2023-08-06T11:17:33;0.10;;;0.10;;
39140;SDS011;24875;48.436;10.298;2023-08-06T11:20:00;0.25;;;0.20;;
39140;SDS011;24875;48.436;10.298;2023-08-06T11:22:27;0.10;;;0.10;;
39140;SDS011;24875;48.436;10.298;2023-08-06T11:24:54;0.20;;;0.20;;
39140;SDS011;24875;48.436;10.298;2023-08-06T11:27:21;0.20;;;0.20;;
39140;SDS011;24875;48.436;10.298;2023-08-06T11:29:48;0.75;;;0.38;;
39140;SDS011;24875;48.436;10.298;2023-08-06T11:32:16;0.20;;;0.20;;
39140;SDS011;24875;48.436;10.298;2023-08-06T11:34:42;0.30;;;0.22;;
39140;SDS011;24875;48.436;10.298;2023-08-06T11:37:09;0.20;;;0.20;;
39140;SDS011;24875;48.436;10.298;2023-08-06T11:39:37;0.25;;;0.25;;
39140;SDS011;24875;48.436;10.298;2023-08-06T11:42:04;0.30;;;0.30;;
39140;SDS011;24875;48.436;10.298;2023-08-06T11:44:32;0.20;;;0.20;;
39140;SDS011;24875;48.436;10.298;2023-08-06T11:47:01;0.20;;;0.20;;
39140;SDS011;24875;48.436;10.298;2023-08-06T11:49:38;0.10;;;0.10;;
39140;SDS011;24875;48.436;10.298;2023-08-06T11:52:08;0.20;;;0.20;;
39140;SDS011;24875;48.436;10.298;2023-08-06T11:54:36;1.90;;;0.28;;
39140;SDS011;24875;48.436;10.298;2023-08-06T11:57:03;0.68;;;0.30;;
39140;SDS011;24875;48.436;10.298;2023-08-06T11:59:31;0.10;;;0.10;;
39140;SDS011;24875;48.436;10.298;2023-08-06T12:01:57;0.20;;;0.20;;
39140;SDS011;24875;48.436;10.298;2023-08-06T12:04:25;0.10;;;0.10;;
39140;SDS011;24875;48.436;10.298;2023-08-06T12:06:53;0.20;;;0.20;;
39140;SDS011;24875;48.436;10.298;2023-08-06T12:09:20;0.20;;;0.20;;
39140;SDS011;24875;48.436;10.298;2023-08-06T12:11:46;0.10;;;0.10;;
39140;SDS011;24875;48.436;10.298;2023-08-06T12:14:13;0.20;;;0.20;;
39140;SDS011;24875;48.436;10.298;2023-08-06T12:16:39;0.20;;;0.20;;
39140;SDS011;24875;48.436;10.298;2023-08-06T12:19:06;0.13;;;0.13;;
39140;SDS011;24875;48.436;10.298;2023-08-06T12:21:32;0.20;;;0.20;;
39140;SDS011;24875;48.436;10.298;2023-08-06T12:24:01;0.20;;;0.20;;
39140;SDS011;24875;48.436;10.298;2023-08-06T12:26:27;0.10;;;0.10;;
39140;SDS011;24875;48.436;10.298;2023-08-06T12:28:54;0.20;;;0.20;;
39140;SDS011;24875;48.436;10.298;2023-08-06T12:31:22;0.10;;;0.10;;
39140;SDS011;24875;48.436;10.298;2023-08-06T12:33:49;0.63;;;0.50;;
39140;SDS011;24875;48.436;10.298;2023-08-06T12:36:16;0.43;;;0.32;;
39140;SDS011;24875;48.436;10.298;2023-08-06T12:38:43;0.20;;;0.20;;
39140;SDS011;24875;48.436;10.298;2023-08-06T12:41:11;0.20;;;0.20;;
39140;SDS011;24875;48.436;10.298;2023-08-06T12:43:37;0.20;;;0.20;;
39140;SDS011;24875;48.436;10.298;2023-08-06T12:46:04;0.10;;;0.10;;
39140;SDS011;24875;48.436;10.298;2023-08-06T12:48:30;0.20;;;0.20;;
39140;SDS011;24875;48.436;10.298;2023-08-06T12:50:57;0.17;;;0.17;;
39140;SDS011;24875;48.436;10.298;2023-08-06T12:53:24;0.10;;;0.10;;
39140;SDS011;24875;48.436;10.298;2023-08-06T12:55:50;0.20;;;0.20;;
39140;SDS011;24875;48.436;10.298;2023-08-06T12:58:18;0.10;;;0.10;;
39140;SDS011;24875;48.436;10.298;2023-08-06T13:00:45;0.30;;;0.30;;
39140;SDS011;24875;48.436;10.298;2023-08-06T13:03:11;0.20;;;0.20;;
39140;SDS011;24875;48.436;10.298;2023-08-06T13:05:38;0.20;;;0.20;;
39140;SDS011;24875;48.436;10.298;2023-08-06T13:08:04;0.30;;;0.30;;
39140;SDS011;24875;48.436;10.298;2023-08-06T13:10:31;0.17;;;0.17;;
39140;SDS011;24875;48.436;10.298;2023-08-06T13:12:58;0.50;;;0.20;;
39140;SDS011;24875;48.436;10.298;2023-08-06T13:15:26;0.10;;;0.10;;
39140;SDS011;24875;48.436;10.298;2023-08-06T13:17:52;0.10;;;0.10;;
39140;SDS011;24875;48.436;10.298;2023-08-06T13:20:19;0.20;;;0.20;;
39140;SDS011;24875;48.436;10.298;2023-08-06T13:22:45;0.20;;;0.20;;
39140;SDS011;24875;48.436;10.298;2023-08-06T13:25:15;0.13;;;0.13;;
39140;SDS011;24875;48.436;10.298;2023-08-06T13:27:42;0.10;;;0.10;;
39140;SDS011;24875;48.436;10.298;2023-08-06T13:30:09;0.10;;;0.10;;
39140;SDS011;24875;48.436;10.298;2023-08-06T13:32:37;0.17;;;0.17;;
39140;SDS011;24875;48.436;10.298;2023-08-06T13:35:04;0.10;;;0.10;;
39140;SDS011;24875;48.436;10.298;2023-08-06T13:37:31;0.20;;;0.20;;
39140;SDS011;24875;48.436;10.298;2023-08-06T13:39:57;0.50;;;0.50;;
39140;SDS011;24875;48.436;10.298;2023-08-06T13:42:24;0.30;;;0.30;;
39140;SDS011;24875;48.436;10.298;2023-08-06T13:44:50;1.55;;;0.30;;
39140;SDS011;24875;48.436;10.298;2023-08-06T13:47:17;0.65;;;0.30;;
39140;SDS011;24875;48.436;10.298;2023-08-06T13:49:45;0.15;;;0.15;;
39140;SDS011;24875;48.436;10.298;2023-08-06T13:52:12;0.22;;;0.22;;
39140;SDS011;24875;48.436;10.298;2023-08-06T13:54:39;0.20;;;0.20;;
39140;SDS011;24875;48.436;10.298;2023-08-06T13:57:05;0.20;;;0.20;;
39140;SDS011;24875;48.436;10.298;2023-08-06T13:59:32;0.30;;;0.30;;
39140;SDS011;24875;48.436;10.298;2023-08-06T14:01:58;0.28;;;0.20;;
39140;SDS011;24875;48.436;10.298;2023-08-06T14:04:25;0.52;;;0.38;;
39140;SDS011;24875;48.436;10.298;2023-08-06T14:06:53;0.20;;;0.20;;
39140;SDS011;24875;48.436;10.298;2023-08-06T14:09:20;0.20;;;0.20;;
39140;SDS011;24875;48.436;10.298;2023-08-06T14:11:46;0.38;;;0.35;;
39140;SDS011;24875;48.436;10.298;2023-08-06T14:14:13;0.30;;;0.30;;
39140;SDS011;24875;48.436;10.298;2023-08-06T14:16:40;0.30;;;0.30;;
39140;SDS011;24875;48.436;10.298;2023-08-06T14:19:06;0.45;;;0.40;;
39140;SDS011;24875;48.436;10.298;2023-08-06T14:21:33;0.20;;;0.20;;
39140;SDS011;24875;48.436;10.298;2023-08-06T14:24:01;0.32;;;0.30;;
39140;SDS011;24875;48.436;10.298;2023-08-06T14:26:28;2.13;;;0.38;;
39140;SDS011;24875;48.436;10.298;2023-08-06T14:28:54;0.90;;;0.22;;
39140;SDS011;24875;48.436;10.298;2023-08-06T14:31:21;0.30;;;0.30;;
39140;SDS011;24875;48.436;10.298;2023-08-06T14:33:47;0.30;;;0.28;;